Russell, Mississippi
Current Conditions -  °F | °C
As of 9:58 PM on Thursday 18 Dec 2014 (Local Time) from KMEI Reporting Station
Broken Clouds Broken Clouds  
Wind Chill:   Ceiling: 4600
Heat Index:   Visibility: 10mi
Dew Point:   Wind: 0mph
Humidity: 82%   Direction: NA
Pressure: 30.2"   Gusts: NA
Location:  32.3221°N, 88.5771°W
Report Text: KMEI 190358Z AUTO 00000KT 10SM BKN046 07/04 A3020 RMK AO2 SLP225 T00720044
Loading
Personal Weather Stations






























Interactive Weather Map New forecast layout! Learn more

10-Day Weather Forecast

Advertisements
Track Severe Weather on mobile